Time;durP1;ratioP1;P1;durP2;ratioP2;P2;SDS_P1;SDS_P2;PMS_P1;PMS_P2;Temp;Humidity;BMP_temperature;BMP_pressure;BME280_temperature;BME280_humidity;BME280_pressure;Samples;Min_cycle;Max_cycle;Signal;HPM_P1;HPM_P2
2023/02/15 00:01:33;;;;;;;17.40;12.90;;;6.40;99.90;;;;;;5005148;28;20459;-70
2023/02/15 00:03:59;;;;;;;20.37;13.03;;;6.40;99.90;;;;;;4995887;28;20455;-69
2023/02/15 00:06:24;;;;;;;22.53;13.70;;;6.30;99.90;;;;;;4994335;28;20432;-71
2023/02/15 00:08:50;;;;;;;19.27;12.90;;;6.30;99.90;;;;;;4995478;28;20193;-71
2023/02/15 00:11:39;;;;;;;22.17;14.47;;;6.30;99.90;;;;;;4998364;28;20632;-71
2023/02/15 00:14:14;;;;;;;21.40;12.97;;;6.30;99.90;;;;;;5000038;28;20183;-71
2023/02/15 00:16:42;;;;;;;19.00;13.83;;;6.30;99.90;;;;;;5002166;28;20522;-71
2023/02/15 00:19:09;;;;;;;21.67;13.67;;;6.30;99.90;;;;;;5003948;28;20949;-71
2023/02/15 00:21:36;;;;;;;20.67;13.60;;;6.20;99.90;;;;;;5005766;28;20848;-72
2023/02/15 00:24:03;;;;;;;18.93;12.87;;;6.10;99.90;;;;;;5007349;28;20509;-72
2023/02/15 00:26:29;;;;;;;20.20;13.10;;;6.30;99.90;;;;;;5008989;28;20452;-73
2023/02/15 00:28:56;;;;;;;18.07;12.90;;;6.50;99.90;;;;;;5011043;28;20435;-73
2023/02/15 00:31:22;;;;;;;19.30;13.90;;;6.40;99.90;;;;;;5012511;28;20231;-74
2023/02/15 00:33:47;;;;;;;19.40;13.33;;;6.30;99.90;;;;;;5008929;28;20428;-79
2023/02/15 00:36:13;;;;;;;22.20;14.47;;;6.20;99.90;;;;;;4994046;28;20547;-73
2023/02/15 00:38:39;;;;;;;25.00;13.83;;;6.20;99.90;;;;;;4997928;28;20177;-71
2023/02/15 00:41:06;;;;;;;19.93;13.17;;;6.10;99.90;;;;;;5002788;28;20824;-72
2023/02/15 00:43:33;;;;;;;23.37;14.27;;;6.20;99.90;;;;;;5004046;28;20588;-70
2023/02/15 00:45:59;;;;;;;21.63;13.43;;;6.10;99.90;;;;;;5003311;28;20445;-70
2023/02/15 00:48:25;;;;;;;20.27;13.90;;;6.10;99.90;;;;;;5004401;28;20804;-70
2023/02/15 00:50:58;;;;;;;26.30;14.63;;;6.00;99.90;;;;;;5006624;28;20188;-68
2023/02/15 00:53:25;;;;;;;28.17;14.87;;;6.00;99.90;;;;;;5008383;28;20434;-69
2023/02/15 00:55:51;;;;;;;21.40;13.87;;;5.90;99.90;;;;;;5009999;28;20443;-70
2023/02/15 00:58:17;;;;;;;22.83;14.40;;;5.90;99.90;;;;;;5011596;28;20484;-70
2023/02/15 01:00:45;;;;;;;23.70;15.63;;;5.80;99.90;;;;;;5012825;28;20187;-70
2023/02/15 01:03:13;;;;;;;19.60;13.53;;;5.80;99.90;;;;;;4995954;28;20288;-70
2023/02/15 01:05:38;;;;;;;23.90;14.60;;;5.90;99.90;;;;;;5006981;28;20427;-70
2023/02/15 01:08:04;;;;;;;23.17;13.33;;;5.90;99.90;;;;;;5008109;28;20789;-70
2023/02/15 01:10:30;;;;;;;18.20;12.67;;;5.90;99.90;;;;;;5006209;28;20603;-70
2023/02/15 01:12:56;;;;;;;20.70;13.63;;;5.90;99.90;;;;;;5004699;28;20563;-71
2023/02/15 01:15:23;;;;;;;23.37;14.90;;;5.90;99.90;;;;;;5002962;28;20443;-71
2023/02/15 01:17:53;;;;;;;20.57;14.90;;;5.90;99.90;;;;;;5000919;28;20448;-72
2023/02/15 01:20:19;;;;;;;24.33;15.37;;;5.90;99.90;;;;;;4999152;28;20472;-73
2023/02/15 01:22:45;;;;;;;23.37;14.13;;;5.80;99.90;;;;;;4997140;28;20852;-74
2023/02/15 01:25:10;;;;;;;25.57;14.70;;;5.80;99.90;;;;;;4997015;28;20436;-73
2023/02/15 01:27:36;;;;;;;19.97;12.30;;;5.80;99.90;;;;;;5012875;28;20652;-75
2023/02/15 01:30:01;;;;;;;27.20;14.70;;;5.90;99.90;;;;;;5012183;28;20184;-76
2023/02/15 01:32:27;;;;;;;20.20;13.30;;;5.80;99.90;;;;;;5010143;28;20319;-76
2023/02/15 01:34:52;;;;;;;25.23;15.43;;;5.80;99.90;;;;;;5008576;28;20216;-74
2023/02/15 01:37:18;;;;;;;23.07;14.47;;;5.80;99.90;;;;;;5003934;28;20320;-74
2023/02/15 01:39:44;;;;;;;19.70;14.20;;;5.70;99.90;;;;;;5003483;28;20203;-73
2023/02/15 01:42:11;;;;;;;20.53;14.40;;;5.70;99.90;;;;;;5003705;28;20212;-71
2023/02/15 01:44:56;;;;;;;24.93;16.27;;;5.60;99.90;;;;;;5005210;28;20184;-71
2023/02/15 01:47:35;;;;;;;28.47;17.40;;;5.60;99.90;;;;;;5007161;28;20461;-71
2023/02/15 01:50:13;;;;;;;23.43;14.33;;;5.60;99.90;;;;;;5005134;28;20442;-71
2023/02/15 01:52:48;;;;;;;28.60;16.97;;;5.60;99.90;;;;;;4995009;28;20885;-71
2023/02/15 01:55:14;;;;;;;22.47;14.73;;;5.60;99.90;;;;;;4993898;28;20571;-71
2023/02/15 01:57:40;;;;;;;25.97;18.47;;;5.70;99.90;;;;;;4994816;28;20851;-71
2023/02/15 02:00:07;;;;;;;31.67;17.57;;;5.80;99.90;;;;;;5008769;28;20432;-74
2023/02/15 02:02:33;;;;;;;28.77;16.20;;;5.70;99.90;;;;;;4994259;28;20471;-73
2023/02/15 02:05:06;;;;;;;26.70;16.87;;;5.80;99.90;;;;;;5009888;28;20932;-73
2023/02/15 02:07:34;;;;;;;26.10;15.60;;;5.70;99.90;;;;;;5008419;28;20536;-73
2023/02/15 02:10:01;;;;;;;27.07;17.93;;;5.60;99.90;;;;;;5008054;28;20535;-73
2023/02/15 02:12:27;;;;;;;28.90;18.20;;;5.60;99.90;;;;;;5010563;28;20443;-73
2023/02/15 02:14:53;;;;;;;29.07;17.87;;;5.60;99.90;;;;;;5008382;28;20514;-72
2023/02/15 02:17:40;;;;;;;30.57;17.10;;;5.60;99.90;;;;;;5000920;28;20193;-72
2023/02/15 02:20:38;;;;;;;31.60;16.63;;;5.50;99.90;;;;;;4998923;28;20436;-72
2023/02/15 02:23:16;;;;;;;30.20;17.97;;;5.50;99.90;;;;;;4997543;28;20472;-73
2023/02/15 02:26:19;;;;;;;31.80;17.20;;;5.50;99.90;;;;;;5000724;28;20439;-73
2023/02/15 02:29:12;;;;;;;30.90;17.67;;;5.40;99.90;;;;;;5012067;28;20466;-73
2023/02/15 02:32:10;;;;;;;28.10;17.07;;;5.50;99.90;;;;;;5002958;28;20476;-73
2023/02/15 02:34:40;;;;;;;27.87;13.70;;;5.40;99.90;;;;;;4990258;28;20526;-73
2023/02/15 02:37:28;;;;;;;23.10;14.50;;;5.40;99.90;;;;;;5008745;28;20770;-73
2023/02/15 02:40:30;;;;;;;23.50;15.20;;;5.30;99.90;;;;;;5003605;28;20933;-72
2023/02/15 02:43:11;;;;;;;19.93;13.90;;;5.30;99.90;;;;;;5010819;28;20497;-72
2023/02/15 02:45:44;;;;;;;30.80;14.47;;;5.40;99.90;;;;;;4999420;28;20794;-72
2023/02/15 02:48:17;;;;;;;22.27;14.37;;;5.40;99.90;;;;;;4998086;28;20486;-71
2023/02/15 02:50:42;;;;;;;25.80;15.63;;;5.30;99.90;;;;;;4996917;28;20602;-70
2023/02/15 02:53:11;;;;;;;24.20;15.07;;;5.30;99.90;;;;;;4998579;28;20544;-72
2023/02/15 02:55:50;;;;;;;23.50;15.30;;;5.40;99.90;;;;;;5000108;28;20188;-72
2023/02/15 02:58:21;;;;;;;25.73;15.00;;;5.50;99.90;;;;;;5002185;28;20821;-72
2023/02/15 03:00:57;;;;;;;24.20;14.90;;;5.60;99.90;;;;;;5004693;28;20423;-72
2023/02/15 03:03:49;;;;;;;25.00;15.30;;;5.60;99.90;;;;;;5005567;28;20449;-72
2023/02/15 03:06:38;;;;;;;31.93;15.80;;;5.50;99.90;;;;;;4996164;28;20481;-72
2023/02/15 03:09:21;;;;;;;25.73;16.20;;;5.50;99.90;;;;;;5009726;28;20435;-72
2023/02/15 03:11:48;;;;;;;26.80;15.27;;;5.30;99.90;;;;;;4999283;28;20436;-72
2023/02/15 03:14:16;;;;;;;29.03;17.30;;;5.20;99.90;;;;;;4998058;28;20432;-72
2023/02/15 03:16:45;;;;;;;24.30;14.27;;;5.10;99.90;;;;;;4996209;28;20454;-72
2023/02/15 03:19:17;;;;;;;21.30;14.70;;;5.10;99.90;;;;;;4996911;28;20427;-72
2023/02/15 03:21:57;;;;;;;23.87;14.90;;;5.00;99.90;;;;;;4998747;28;20812;-72
2023/02/15 03:24:27;;;;;;;27.20;17.20;;;5.00;99.90;;;;;;5010861;28;20424;-70
2023/02/15 03:26:54;;;;;;;20.00;13.67;;;5.00;99.90;;;;;;5008169;28;20485;-72
2023/02/15 03:29:23;;;;;;;21.73;12.60;;;4.90;99.90;;;;;;5006726;28;20427;-73
2023/02/15 03:31:59;;;;;;;25.23;15.77;;;5.00;99.90;;;;;;5003757;28;20911;-70
2023/02/15 03:34:25;;;;;;;28.67;16.40;;;5.00;99.90;;;;;;5005476;28;20445;-70
2023/02/15 03:36:58;;;;;;;28.77;16.90;;;5.00;99.90;;;;;;4982348;28;20447;-71
2023/02/15 03:39:45;;;;;;;22.77;15.70;;;5.10;99.90;;;;;;4998299;28;20490;-71
2023/02/15 05:31:05;;;;;;;32.65;18.00;;;4.40;99.90;;;;;;5726937;23;1110189;-71
2023/02/15 05:33:31;;;;;;;34.53;18.00;;;4.40;99.90;;;;;;5013057;28;20230;-76
2023/02/15 05:35:57;;;;;;;32.37;18.93;;;4.40;99.90;;;;;;5013410;28;20450;-79
2023/02/15 05:38:23;;;;;;;32.07;18.30;;;4.40;99.90;;;;;;4998863;28;20442;-81
2023/02/15 05:40:49;;;;;;;36.17;20.17;;;4.50;99.90;;;;;;5018067;28;20198;-78
2023/02/15 05:43:15;;;;;;;28.93;15.73;;;4.50;99.90;;;;;;5020070;28;20223;-74
2023/02/15 05:45:47;;;;;;;31.77;19.83;;;4.50;99.90;;;;;;5021686;28;20430;-74
2023/02/15 05:48:13;;;;;;;32.67;18.73;;;4.60;99.90;;;;;;5022861;28;20183;-74
2023/02/15 05:50:38;;;;;;;36.97;20.17;;;4.60;99.90;;;;;;5024284;28;20435;-74
2023/02/15 05:53:04;;;;;;;34.43;18.30;;;4.50;99.90;;;;;;5030119;28;20185;-74
2023/02/15 05:55:29;;;;;;;33.10;19.50;;;4.60;99.90;;;;;;5020981;28;20180;-75
2023/02/15 05:57:55;;;;;;;37.93;21.80;;;4.60;99.90;;;;;;5015474;28;20564;-74
2023/02/15 06:00:20;;;;;;;23.53;13.80;;;4.60;99.90;;;;;;5013102;28;20721;-74
2023/02/15 06:02:46;;;;;;;26.90;14.33;;;4.80;99.90;;;;;;5019568;28;20215;-76
2023/02/15 06:05:11;;;;;;;31.50;18.70;;;4.80;99.90;;;;;;5014747;28;20192;-74
2023/02/15 06:07:37;;;;;;;32.63;17.80;;;4.70;99.90;;;;;;5016590;28;20195;-75
2023/02/15 06:10:04;;;;;;;31.43;19.43;;;4.70;99.90;;;;;;5018198;28;20202;-74
2023/02/15 06:12:30;;;;;;;26.30;17.97;;;4.60;99.90;;;;;;5019678;28;20552;-75
2023/02/15 06:15:05;;;;;;;27.50;17.33;;;4.60;99.90;;;;;;5021983;28;20951;-74
2023/02/15 06:17:31;;;;;;;38.83;19.40;;;4.60;99.90;;;;;;5020643;28;20433;-75
2023/02/15 06:19:56;;;;;;;34.10;17.97;;;4.60;99.90;;;;;;5024305;28;20829;-75
2023/02/15 06:22:22;;;;;;;26.97;17.90;;;4.60;99.90;;;;;;5025466;28;20208;-76
2023/02/15 06:24:48;;;;;;;34.23;18.00;;;4.70;99.90;;;;;;5022819;28;20203;-75
2023/02/15 06:27:13;;;;;;;23.23;15.97;;;4.60;99.90;;;;;;5026597;28;20180;-75
2023/02/15 06:29:39;;;;;;;29.53;17.70;;;4.60;99.90;;;;;;5026573;28;20198;-77
2023/02/15 06:32:05;;;;;;;37.27;19.07;;;4.60;99.90;;;;;;5030054;28;20228;-77
2023/02/15 06:34:30;;;;;;;22.93;14.30;;;4.60;99.90;;;;;;5028586;28;20202;-78
2023/02/15 06:36:56;;;;;;;26.37;14.63;;;4.70;99.90;;;;;;5024615;28;20192;-77
2023/02/15 06:39:22;;;;;;;31.27;15.80;;;4.80;99.90;;;;;;5005109;28;20183;-80
2023/02/15 06:41:47;;;;;;;25.03;15.30;;;4.80;99.90;;;;;;5022996;28;20571;-76
2023/02/15 06:44:13;;;;;;;28.90;16.90;;;4.60;99.90;;;;;;5025647;28;20679;-76
2023/02/15 06:46:39;;;;;;;31.07;17.80;;;4.60;99.90;;;;;;5030340;28;20694;-76
2023/02/15 06:49:04;;;;;;;34.50;19.10;;;4.50;99.90;;;;;;5027973;28;20190;-76
2023/02/15 06:51:30;;;;;;;36.70;20.40;;;4.40;99.90;;;;;;5026165;28;20178;-75
2023/02/15 06:53:55;;;;;;;32.80;20.13;;;4.40;99.90;;;;;;5019045;28;20188;-75
2023/02/15 06:56:21;;;;;;;31.43;18.23;;;4.50;99.90;;;;;;5016114;28;20636;-74
2023/02/15 06:58:49;;;;;;;39.20;19.20;;;4.50;99.90;;;;;;5026288;28;20180;-74
2023/02/15 07:01:14;;;;;;;30.57;19.87;;;4.60;99.90;;;;;;5021162;28;20184;-74
2023/02/15 07:03:40;;;;;;;37.00;20.67;;;4.60;99.90;;;;;;5022302;28;20434;-74
2023/02/15 07:06:08;;;;;;;26.93;16.90;;;4.60;99.90;;;;;;5023406;28;20185;-74
2023/02/15 07:08:34;;;;;;;26.83;15.70;;;4.70;99.90;;;;;;5026737;28;20198;-74
2023/02/15 07:13:46;;;;;;;23.60;14.03;;;4.90;99.90;;;;;;5028588;28;20442;-74
2023/02/15 07:16:12;;;;;;;32.87;16.20;;;4.80;99.90;;;;;;5027481;28;20429;-74
2023/02/15 07:18:38;;;;;;;27.97;15.83;;;4.70;99.90;;;;;;5030006;28;20799;-73
2023/02/15 07:21:04;;;;;;;28.93;15.23;;;4.60;99.90;;;;;;5018852;28;20185;-74
2023/02/15 07:23:30;;;;;;;25.07;16.83;;;4.50;99.90;;;;;;5019155;28;20795;-74
2023/02/15 07:25:59;;;;;;;41.63;20.10;;;4.50;99.90;;;;;;5025771;28;20454;-75
2023/02/15 07:28:25;;;;;;;39.00;20.20;;;4.50;99.90;;;;;;5027542;28;20595;-75
2023/02/15 07:30:51;;;;;;;32.07;19.33;;;4.60;99.90;;;;;;5023037;28;20474;-74
2023/02/15 07:33:22;;;;;;;39.60;22.63;;;4.60;99.90;;;;;;5023299;28;20554;-75
2023/02/15 07:35:59;;;;;;;35.27;22.43;;;4.60;99.90;;;;;;5026978;28;20505;-76
2023/02/15 07:38:26;;;;;;;26.33;16.60;;;4.70;99.90;;;;;;5024785;28;20462;-74
2023/02/15 07:41:11;;;;;;;25.80;14.60;;;4.80;99.90;;;;;;5005808;28;20489;-72
2023/02/15 07:43:55;;;;;;;25.83;14.67;;;4.90;99.90;;;;;;5029295;28;20800;-73
2023/02/15 07:46:21;;;;;;;23.80;14.73;;;5.00;99.90;;;;;;5029133;28;20480;-72
2023/02/15 07:48:47;;;;;;;31.83;18.27;;;5.10;99.90;;;;;;5025188;28;20434;-72
2023/02/15 07:51:14;;;;;;;37.47;20.70;;;5.20;99.90;;;;;;5026787;28;20596;-73
2023/02/15 07:53:40;;;;;;;33.13;17.97;;;5.40;99.90;;;;;;5029044;28;20452;-73
2023/02/15 07:56:09;;;;;;;33.30;19.57;;;5.50;99.90;;;;;;5030739;28;20449;-73
2023/02/15 07:58:50;;;;;;;31.90;18.20;;;5.80;99.90;;;;;;5029793;28;20798;-73
2023/02/15 08:01:17;;;;;;;28.70;16.57;;;6.00;99.90;;;;;;5030565;28;20508;-73
2023/02/15 08:03:43;;;;;;;34.60;18.03;;;6.30;99.90;;;;;;5031966;28;20441;-73
2023/02/15 08:06:11;;;;;;;41.00;19.30;;;6.50;99.90;;;;;;5031142;28;20481;-73
2023/02/15 08:08:37;;;;;;;44.53;20.33;;;6.70;99.90;;;;;;5029310;28;20180;-74
2023/02/15 08:14:15;;;;;;;28.83;18.13;;;7.00;99.90;;;;;;4952232;28;20802;-74
2023/02/15 08:16:42;;;;;;;35.63;22.13;;;7.30;99.90;;;;;;5012661;28;20435;-75
2023/02/15 08:19:11;;;;;;;38.67;22.07;;;7.50;99.90;;;;;;4991563;28;20961;-74
2023/02/15 08:21:40;;;;;;;37.00;21.97;;;7.70;99.90;;;;;;5026936;28;20830;-75
2023/02/15 08:24:20;;;;;;;34.27;19.20;;;8.10;99.90;;;;;;5031956;28;20911;-75
2023/02/15 08:26:47;;;;;;;29.33;20.00;;;8.40;99.90;;;;;;5025417;28;20491;-74
2023/02/15 08:29:14;;;;;;;30.27;20.37;;;8.70;99.90;;;;;;5025224;28;20514;-75
2023/02/15 08:31:41;;;;;;;33.50;20.03;;;8.90;99.90;;;;;;5028027;28;20471;-74
2023/02/15 08:34:13;;;;;;;30.83;19.07;;;9.10;99.90;;;;;;5025014;28;20516;-74
2023/02/15 08:36:38;;;;;;;29.20;19.70;;;9.30;99.90;;;;;;5028026;28;20466;-74
2023/02/15 08:39:06;;;;;;;33.43;19.10;;;9.50;99.90;;;;;;5009871;28;20457;-73
2023/02/15 08:41:35;;;;;;;30.23;17.87;;;9.70;99.90;;;;;;5028265;28;20214;-74
2023/02/15 08:44:03;;;;;;;39.13;19.23;;;9.90;99.90;;;;;;5025350;28;20941;-74
2023/02/15 08:46:32;;;;;;;33.50;20.43;;;10.00;99.90;;;;;;5023566;28;20433;-74
2023/02/15 08:48:58;;;;;;;31.90;19.03;;;10.10;99.90;;;;;;5016716;28;20520;-74
2023/02/15 08:51:26;;;;;;;29.67;19.30;;;10.20;99.90;;;;;;5027615;28;20797;-74
2023/02/15 08:53:54;;;;;;;31.40;20.73;;;10.30;99.90;;;;;;5026297;28;20430;-73
2023/02/15 08:56:25;;;;;;;34.10;20.10;;;10.30;99.90;;;;;;5025833;28;20454;-74
2023/02/15 08:58:52;;;;;;;30.30;19.07;;;10.40;99.90;;;;;;5025712;28;20453;-74
2023/02/15 09:01:26;;;;;;;29.27;18.33;;;10.30;99.90;;;;;;5024262;28;20447;-72
2023/02/15 09:03:56;;;;;;;31.47;18.27;;;10.40;99.90;;;;;;5030890;28;20449;-75
2023/02/15 09:06:22;;;;;;;26.83;17.63;;;10.40;99.90;;;;;;5029591;28;20804;-72
2023/02/15 09:08:49;;;;;;;31.67;19.23;;;10.50;99.90;;;;;;5031696;28;20925;-73
2023/02/15 09:11:22;;;;;;;31.40;19.17;;;10.50;99.90;;;;;;5031718;28;20438;-72
2023/02/15 09:13:58;;;;;;;31.23;18.03;;;10.60;99.90;;;;;;5028938;28;20942;-72
2023/02/15 09:16:26;;;;;;;26.97;18.50;;;10.70;99.90;;;;;;5024670;28;20430;-73
2023/02/15 09:18:52;;;;;;;28.50;18.70;;;10.80;99.90;;;;;;5009552;28;20434;-72
2023/02/15 09:21:21;;;;;;;26.30;17.40;;;10.80;99.90;;;;;;5026907;28;20446;-73
2023/02/15 09:23:49;;;;;;;28.83;17.70;;;10.80;99.90;;;;;;5025568;28;20441;-72
2023/02/15 09:26:18;;;;;;;31.50;18.20;;;10.90;99.90;;;;;;5024510;28;20507;-73
2023/02/15 09:28:44;;;;;;;31.83;18.93;;;11.00;99.90;;;;;;5025315;28;20435;-73
2023/02/15 09:31:13;;;;;;;29.07;18.27;;;11.20;99.90;;;;;;5022046;28;20557;-73
2023/02/15 09:33:40;;;;;;;26.73;17.20;;;11.20;99.90;;;;;;5022150;28;20423;-73
2023/02/15 09:36:13;;;;;;;28.50;17.10;;;11.30;99.90;;;;;;5019152;28;20484;-73
2023/02/15 09:38:39;;;;;;;24.83;15.80;;;11.30;99.90;;;;;;5023201;28;20880;-73
2023/02/15 09:41:27;;;;;;;24.90;16.03;;;11.30;99.90;;;;;;5025668;28;20513;-73
2023/02/15 09:44:20;;;;;;;28.73;19.17;;;11.30;99.90;;;;;;4982532;28;20215;-73
2023/02/15 09:47:34;;;;;;;23.67;15.97;;;11.40;99.90;;;;;;5023696;28;20439;-74
2023/02/15 09:50:50;;;;;;;26.03;16.20;;;11.50;99.90;;;;;;5003477;28;20474;-76
2023/02/15 09:53:41;;;;;;;25.50;14.80;;;11.50;99.90;;;;;;4991585;28;20957;-76
2023/02/15 09:56:45;;;;;;;25.60;15.20;;;11.50;99.90;;;;;;5012982;28;20449;-76
2023/02/15 09:59:33;;;;;;;23.13;15.83;;;11.70;99.90;;;;;;4997682;28;20435;-76
2023/02/15 10:02:27;;;;;;;21.47;15.20;;;11.80;99.90;;;;;;5024956;28;20509;-76
2023/02/15 10:05:21;;;;;;;31.70;16.03;;;12.00;99.90;;;;;;5023399;28;20441;-76
2023/02/15 10:07:47;;;;;;;25.03;15.70;;;12.00;99.90;;;;;;5022387;28;20443;-76
2023/02/15 10:10:22;;;;;;;22.33;14.43;;;12.00;99.90;;;;;;5030003;28;20457;-76
2023/02/15 10:13:07;;;;;;;22.10;15.33;;;12.10;99.90;;;;;;5029579;28;20210;-76
2023/02/15 10:16:12;;;;;;;22.43;14.10;;;12.30;99.90;;;;;;5029881;28;20937;-76
2023/02/15 10:19:01;;;;;;;32.40;16.27;;;12.40;99.90;;;;;;5028353;28;20941;-76
2023/02/15 10:21:44;;;;;;;23.13;14.83;;;12.30;99.90;;;;;;5029093;28;20911;-76
2023/02/15 10:24:28;;;;;;;26.43;15.60;;;12.30;99.90;;;;;;5028155;28;20464;-75
2023/02/15 10:27:03;;;;;;;23.13;14.10;;;12.50;99.90;;;;;;5030076;28;20841;-75
2023/02/15 10:29:36;;;;;;;22.30;14.10;;;12.50;99.90;;;;;;5019947;28;20496;-75
2023/02/15 10:32:33;;;;;;;23.30;14.83;;;12.50;99.70;;;;;;5016224;28;20894;-75
2023/02/15 10:35:40;;;;;;;23.23;14.00;;;12.60;99.90;;;;;;5020767;28;20538;-74
2023/02/15 10:38:10;;;;;;;22.10;12.90;;;12.60;99.90;;;;;;5022623;28;20858;-74
2023/02/15 10:40:59;;;;;;;24.40;13.60;;;12.70;99.90;;;;;;5020890;28;21040;-73
2023/02/15 10:43:46;;;;;;;25.47;14.33;;;12.70;99.90;;;;;;4998922;28;20461;-74
2023/02/15 10:46:29;;;;;;;20.07;13.20;;;12.80;99.90;;;;;;5000119;28;20491;-70
2023/02/15 10:49:11;;;;;;;21.70;13.90;;;12.90;99.90;;;;;;5028699;28;20453;-71
2023/02/15 10:52:12;;;;;;;25.60;14.83;;;13.00;99.90;;;;;;5030534;28;20999;-72
2023/02/15 10:55:11;;;;;;;24.90;13.67;;;13.10;99.90;;;;;;5028598;28;20438;-72
2023/02/15 10:57:54;;;;;;;24.57;14.10;;;13.20;99.90;;;;;;5031395;28;20426;-71
2023/02/15 11:00:31;;;;;;;23.23;13.40;;;13.40;99.40;;;;;;5025532;28;20427;-77
2023/02/15 11:03:29;;;;;;;24.10;13.40;;;13.50;98.60;;;;;;5011636;28;20468;-75
2023/02/15 11:06:10;;;;;;;23.47;13.47;;;13.60;98.80;;;;;;5030091;28;20533;-74
2023/02/15 11:08:41;;;;;;;22.73;12.90;;;13.80;97.60;;;;;;5027749;28;20484;-75
2023/02/15 11:11:16;;;;;;;18.30;11.90;;;13.60;96.50;;;;;;5031088;28;20476;-75
2023/02/15 11:13:46;;;;;;;21.70;12.87;;;13.60;96.20;;;;;;5029535;28;20435;-75
2023/02/15 11:16:31;;;;;;;17.53;11.77;;;13.70;95.90;;;;;;5029154;28;20418;-75
2023/02/15 11:19:08;;;;;;;21.20;13.23;;;13.80;96.00;;;;;;5011558;28;20933;-75
2023/02/15 11:21:40;;;;;;;18.03;12.40;;;14.00;95.00;;;;;;5025734;28;20470;-74
2023/02/15 11:24:14;;;;;;;19.40;11.37;;;14.10;94.10;;;;;;5025582;28;20434;-74
2023/02/15 11:26:47;;;;;;;16.40;11.93;;;14.20;93.60;;;;;;5022841;28;20419;-74
2023/02/15 11:29:25;;;;;;;19.50;11.80;;;14.20;94.00;;;;;;5019640;28;20443;-75
2023/02/15 11:32:17;;;;;;;19.83;11.77;;;14.20;94.00;;;;;;5026457;28;20470;-74
2023/02/15 11:35:10;;;;;;;16.90;11.90;;;14.40;93.40;;;;;;5022092;28;20438;-74
2023/02/15 11:37:42;;;;;;;23.50;12.33;;;14.50;93.40;;;;;;5031729;28;20418;-74
2023/02/15 11:40:35;;;;;;;17.20;9.47;;;14.50;96.80;;;;;;5032505;28;21319;-71
2023/02/15 11:43:10;;;;;;;15.80;9.97;;;14.70;94.20;;;;;;5030632;28;20561;-71
2023/02/15 11:45:36;;;;;;;14.23;9.97;;;14.90;90.10;;;;;;5032473;28;20448;-71
2023/02/15 11:48:12;;;;;;;15.00;9.00;;;14.90;87.00;;;;;;5031200;28;21067;-72
2023/02/15 11:50:38;;;;;;;15.00;9.73;;;15.10;86.50;;;;;;5030374;28;20207;-72
2023/02/15 11:53:11;;;;;;;15.50;10.07;;;15.30;86.70;;;;;;5027690;28;20791;-72
2023/02/15 11:55:37;;;;;;;14.67;8.77;;;15.40;86.90;;;;;;5029388;28;20426;-71
2023/02/15 11:58:06;;;;;;;12.10;8.23;;;15.30;84.60;;;;;;5028779;28;20445;-73
2023/02/15 12:00:38;;;;;;;16.83;8.73;;;15.50;84.40;;;;;;5028820;28;20263;-74
2023/02/15 12:03:36;;;;;;;17.80;8.57;;;15.70;83.70;;;;;;5028898;28;20523;-75
2023/02/15 12:06:04;;;;;;;14.77;8.60;;;15.80;80.50;;;;;;5020942;28;20466;-73
2023/02/15 12:08:43;;;;;;;21.93;9.83;;;16.10;78.80;;;;;;5034222;28;20836;-73
2023/02/15 12:11:15;;;;;;;11.30;8.43;;;16.50;75.00;;;;;;5032789;28;20426;-73
2023/02/15 12:13:59;;;;;;;11.60;7.87;;;16.70;73.00;;;;;;5029558;28;20437;-73
2023/02/15 12:16:26;;;;;;;12.60;8.40;;;17.00;70.30;;;;;;5031642;28;20430;-73
2023/02/15 12:19:00;;;;;;;11.00;8.17;;;17.10;66.60;;;;;;5030642;28;20426;-73
2023/02/15 12:21:25;;;;;;;11.60;7.40;;;17.00;65.90;;;;;;5023554;28;20422;-73
2023/02/15 12:23:55;;;;;;;15.93;9.40;;;17.10;65.30;;;;;;5023970;28;20765;-74
2023/02/15 12:26:35;;;;;;;12.23;8.57;;;17.10;64.10;;;;;;5028987;28;20221;-74
2023/02/15 12:29:16;;;;;;;11.90;8.70;;;17.10;63.30;;;;;;5007954;28;20477;-74
2023/02/15 12:31:49;;;;;;;11.60;7.83;;;17.00;63.40;;;;;;5016904;28;20471;-74
2023/02/15 12:34:39;;;;;;;13.63;7.93;;;16.90;63.00;;;;;;5029068;28;20438;-74
2023/02/15 12:37:15;;;;;;;10.83;8.17;;;16.90;62.30;;;;;;5029897;28;21003;-73
2023/02/15 12:39:55;;;;;;;13.00;9.17;;;16.90;62.90;;;;;;5030025;28;20446;-73
2023/02/15 12:42:23;;;;;;;14.10;9.80;;;16.90;62.10;;;;;;5029322;28;20505;-74
2023/02/15 12:45:04;;;;;;;12.73;9.20;;;16.70;61.10;;;;;;5028469;28;20904;-74
2023/02/15 12:47:31;;;;;;;12.83;8.50;;;16.70;62.30;;;;;;5022474;28;20434;-74
2023/02/15 12:50:11;;;;;;;13.77;8.90;;;16.70;62.30;;;;;;5022513;28;20949;-74
2023/02/15 12:52:36;;;;;;;15.23;9.30;;;16.60;62.90;;;;;;5018264;28;20435;-74
2023/02/15 12:55:29;;;;;;;15.20;8.93;;;16.50;63.50;;;;;;5015954;28;20451;-75
2023/02/15 12:58:18;;;;;;;17.27;10.23;;;16.50;62.30;;;;;;5023965;28;20430;-74
2023/02/15 13:00:45;;;;;;;13.20;9.87;;;16.60;62.60;;;;;;5025272;28;20435;-75
2023/02/15 13:03:23;;;;;;;17.03;8.50;;;16.70;62.00;;;;;;5026999;28;20541;-75
2023/02/15 13:05:54;;;;;;;15.10;9.63;;;16.50;62.90;;;;;;5021610;28;20442;-75
2023/02/15 13:08:22;;;;;;;14.60;9.63;;;16.60;62.20;;;;;;5024158;28;20434;-75
2023/02/15 13:11:00;;;;;;;15.67;10.37;;;16.50;61.40;;;;;;5019631;28;20507;-75
2023/02/15 13:13:35;;;;;;;12.93;9.13;;;16.50;62.00;;;;;;5020575;28;20442;-75
2023/02/15 13:16:13;;;;;;;15.20;8.50;;;16.50;61.60;;;;;;5025170;28;20429;-77
2023/02/15 13:18:45;;;;;;;13.63;9.13;;;16.60;63.00;;;;;;5026321;28;20487;-77
2023/02/15 13:21:18;;;;;;;16.07;10.27;;;16.80;61.40;;;;;;5019836;28;20442;-77
2023/02/15 13:23:56;;;;;;;17.97;9.57;;;16.80;60.10;;;;;;5020929;28;20469;-76
2023/02/15 13:26:26;;;;;;;12.90;9.60;;;16.70;60.50;;;;;;5028741;28;20441;-77
2023/02/15 13:29:00;;;;;;;15.73;8.60;;;16.60;59.90;;;;;;5024396;28;20431;-76
2023/02/15 13:31:31;;;;;;;14.60;9.10;;;16.40;60.90;;;;;;5027061;28;20473;-77
2023/02/15 13:34:03;;;;;;;16.80;9.30;;;16.50;62.40;;;;;;5027016;28;21008;-76
2023/02/15 13:36:41;;;;;;;14.03;9.07;;;16.60;60.80;;;;;;5024541;28;20925;-76
2023/02/15 13:39:40;;;;;;;16.50;10.33;;;16.70;60.30;;;;;;5023460;28;20446;-77
2023/02/15 13:42:16;;;;;;;20.40;9.60;;;16.80;61.50;;;;;;5025438;28;20488;-77
2023/02/15 13:45:22;;;;;;;15.40;9.40;;;16.90;60.00;;;;;;5021804;28;20829;-76
2023/02/15 13:48:04;;;;;;;17.10;10.37;;;16.90;59.40;;;;;;5018062;28;20472;-76
2023/02/15 13:50:56;;;;;;;14.80;10.17;;;16.90;59.80;;;;;;5029087;28;20865;-75
2023/02/15 13:53:43;;;;;;;16.00;9.87;;;17.00;61.80;;;;;;5028982;28;20480;-76
2023/02/15 13:56:11;;;;;;;14.50;9.20;;;16.90;60.30;;;;;;5031488;28;20937;-76
2023/02/15 13:59:14;;;;;;;17.90;11.43;;;17.00;61.10;;;;;;5035760;28;20441;-75
2023/02/15 14:02:08;;;;;;;15.77;10.57;;;16.90;61.20;;;;;;5034011;28;21207;-76
2023/02/15 14:05:00;;;;;;;16.57;10.33;;;17.00;62.90;;;;;;5033991;28;20442;-75
2023/02/15 14:07:38;;;;;;;19.57;11.40;;;17.10;62.30;;;;;;5033204;28;20426;-76
2023/02/15 14:10:25;;;;;;;14.67;9.77;;;17.00;59.60;;;;;;5027565;28;20423;-76
2023/02/15 14:13:07;;;;;;;16.43;10.03;;;17.00;60.70;;;;;;5029970;28;20897;-75
2023/02/15 14:15:58;;;;;;;17.30;9.73;;;16.90;60.00;;;;;;5025071;28;20429;-74
2023/02/15 14:18:41;;;;;;;17.20;9.70;;;16.90;61.00;;;;;;5026338;28;20468;-74
2023/02/15 14:21:16;;;;;;;15.83;10.43;;;16.90;59.60;;;;;;5032977;28;20432;-75
2023/02/15 14:24:08;;;;;;;16.90;10.80;;;16.80;59.50;;;;;;5034593;28;20468;-74
2023/02/15 14:27:04;;;;;;;18.70;10.23;;;16.60;59.20;;;;;;5034290;28;20465;-74
2023/02/15 14:29:51;;;;;;;18.37;10.97;;;16.50;59.70;;;;;;5050268;28;20438;-74
2023/02/15 14:32:26;;;;;;;15.27;10.07;;;16.50;60.20;;;;;;5033236;28;20875;-74
2023/02/15 14:34:58;;;;;;;14.97;9.33;;;16.50;60.90;;;;;;5032306;28;20511;-74
2023/02/15 14:37:45;;;;;;;18.30;9.63;;;16.40;60.80;;;;;;5031388;28;20811;-76
2023/02/15 14:41:01;;;;;;;16.50;10.50;;;16.30;61.50;;;;;;5029615;28;20790;-73
2023/02/15 14:43:39;;;;;;;19.90;10.00;;;16.30;61.20;;;;;;5022708;28;20574;-73
2023/02/15 14:46:32;;;;;;;23.63;12.17;;;16.30;61.50;;;;;;5006751;28;20534;-75
2023/02/15 14:49:05;;;;;;;16.20;10.03;;;16.30;61.60;;;;;;5023318;28;20434;-73
2023/02/15 14:51:40;;;;;;;15.73;9.53;;;16.20;61.90;;;;;;5030235;28;20434;-73
2023/02/15 14:54:10;;;;;;;13.43;8.63;;;16.20;60.90;;;;;;5026749;28;21075;-73
2023/02/15 14:56:38;;;;;;;19.20;10.60;;;16.10;60.10;;;;;;5028068;28;20433;-73
2023/02/15 14:59:12;;;;;;;17.30;9.43;;;16.10;61.20;;;;;;5027990;28;20518;-73
2023/02/15 15:01:38;;;;;;;15.90;10.20;;;16.10;61.80;;;;;;5025868;28;21229;-73
2023/02/15 15:04:08;;;;;;;20.03;10.57;;;16.10;62.70;;;;;;5012524;28;20804;-73